香港 の空港の天気 - METARとTAF

香港国際空港 ( VHHH / HKG ) - 香港 赤リョウ角
飛行場実況気象(Metar)
観測時間04/22 00:30 HKT (04/21 16:30 UTC)
風向・風速東南東 4m/s
視程10km以上
天気現象
少しの雲 雲底高度 550m
気温28℃
湿度84%
気圧1009hPa
METARVHHH 211630Z 12008KT 090V160 9999 FEW018 28/25 Q1009 NOSIG
過去の天気等 Google飛行場航空写真 Wunderground天気予報

過去48時間のMETAR

飛行場予報(TAF)
発表時間: 4/21 19:00 HKT (4/21 11:00 UTC)
予報対象時間: 21日20時 HKT ~ 23日2時 HKT
風向・風速南 5m/s
視程9000m
少しの雲 雲底高度 460m
全天の4割程度の雲 雲底高度 910m
22日11時 HKT ~ 22日17時 HKT に一時的に
視程4000m
天気現象しゅう雨
少しの積乱雲 雲底高度 300m
全天の4割程度の雲 雲底高度 610m
TAF VHHH 211100Z 2112/2218 18010KT 9000 FEW015 SCT030 TX31/2206Z TN25/2122Z
TEMPO 2203/2209 4000 SHRA FEW010CB SCT020